Time;durP1;ratioP1;P1;durP2;ratioP2;P2;SDS_P1;SDS_P2;PMS_P1;PMS_P2;Temp;Humidity;BMP_temperature;BMP_pressure;BME280_temperature;BME280_humidity;BME280_pressure;Samples;Min_cycle;Max_cycle;Signal;HPM_P1;HPM_P2
2020/12/15 00:00:39;;;;;;;14.65;9.10;;;8.40;99.90;;;;;;5053629;28;20052;-78
2020/12/15 00:03:05;;;;;;;12.40;8.48;;;8.30;99.90;;;;;;5071798;28;20013;-78
2020/12/15 00:05:31;;;;;;;15.52;9.18;;;8.30;99.90;;;;;;5074752;28;20534;-78
2020/12/15 00:07:56;;;;;;;14.77;9.15;;;8.30;99.90;;;;;;5075040;28;20043;-78
2020/12/15 00:10:22;;;;;;;16.33;8.77;;;8.30;99.90;;;;;;5086256;28;20479;-78
2020/12/15 00:12:47;;;;;;;12.38;8.57;;;8.30;99.90;;;;;;5074903;28;20025;-78
2020/12/15 00:15:12;;;;;;;14.77;9.65;;;8.30;99.90;;;;;;5056554;28;20026;-78
2020/12/15 00:17:38;;;;;;;16.05;8.50;;;8.30;99.90;;;;;;5056897;28;20029;-78
2020/12/15 00:20:07;;;;;;;12.95;8.63;;;8.30;99.90;;;;;;5056725;28;20024;-78
2020/12/15 00:22:34;;;;;;;13.30;8.63;;;8.30;99.90;;;;;;5074591;28;20048;-78
2020/12/15 00:25:00;;;;;;;15.02;9.13;;;8.30;99.90;;;;;;5074637;28;20032;-78
2020/12/15 00:27:26;;;;;;;11.80;8.63;;;8.30;99.90;;;;;;5074608;28;20021;-78
2020/12/15 00:29:52;;;;;;;11.65;8.85;;;8.30;99.90;;;;;;5074517;28;20104;-78
2020/12/15 00:32:17;;;;;;;12.30;8.82;;;8.30;99.90;;;;;;5074510;28;20095;-78
2020/12/15 00:34:43;;;;;;;12.23;8.20;;;8.30;99.90;;;;;;5076277;28;20025;-78
2020/12/15 00:37:08;;;;;;;13.60;9.48;;;8.30;99.90;;;;;;5056588;28;20020;-78
2020/12/15 00:39:34;;;;;;;12.68;8.65;;;8.30;99.90;;;;;;5061047;28;20028;-78
2020/12/15 00:41:59;;;;;;;16.77;9.63;;;8.30;99.90;;;;;;5083535;28;20021;-78
2020/12/15 00:44:25;;;;;;;13.75;9.50;;;8.20;99.90;;;;;;5073965;28;20031;-78
2020/12/15 00:46:50;;;;;;;15.00;8.70;;;8.20;99.90;;;;;;5056363;28;20488;-78
2020/12/15 00:49:17;;;;;;;11.48;8.68;;;8.20;99.90;;;;;;5089119;28;20127;-78
2020/12/15 00:51:42;;;;;;;12.90;8.70;;;8.20;99.90;;;;;;5055627;28;20024;-78
2020/12/15 00:54:08;;;;;;;13.63;8.60;;;8.20;99.90;;;;;;5073347;28;20472;-78
2020/12/15 00:56:33;;;;;;;13.00;9.25;;;8.20;99.90;;;;;;5067657;28;20372;-78
2020/12/15 00:58:59;;;;;;;15.85;8.90;;;8.30;99.90;;;;;;5073215;28;20432;-78
2020/12/15 01:01:24;;;;;;;15.60;9.57;;;8.20;99.90;;;;;;5057910;28;20050;-78
2020/12/15 01:03:50;;;;;;;18.98;10.25;;;8.20;99.90;;;;;;5054976;28;20036;-78
2020/12/15 01:06:15;;;;;;;15.23;9.73;;;8.30;99.90;;;;;;5073254;28;20468;-79
2020/12/15 01:08:41;;;;;;;11.15;8.55;;;8.20;99.90;;;;;;5073004;28;20392;-78
2020/12/15 01:11:06;;;;;;;14.23;10.20;;;8.20;99.90;;;;;;5079844;28;20138;-79
2020/12/15 01:13:32;;;;;;;13.20;9.57;;;8.20;99.90;;;;;;5060196;28;20028;-80
2020/12/15 01:16:03;;;;;;;12.82;9.85;;;8.30;99.90;;;;;;5078280;28;20165;-79
2020/12/15 01:18:28;;;;;;;15.32;9.77;;;8.20;99.90;;;;;;5073689;28;20107;-78
2020/12/15 01:20:54;;;;;;;13.60;9.38;;;8.20;99.90;;;;;;5055365;28;20103;-78
2020/12/15 01:23:19;;;;;;;12.30;9.27;;;8.20;99.90;;;;;;5055814;28;20016;-78
2020/12/15 01:25:45;;;;;;;12.68;9.18;;;8.30;99.90;;;;;;5055270;28;20545;-79
2020/12/15 01:28:10;;;;;;;13.30;9.60;;;8.20;99.90;;;;;;5055607;28;20020;-78
2020/12/15 01:30:36;;;;;;;14.48;9.57;;;8.20;99.90;;;;;;5073147;28;20028;-78
2020/12/15 01:33:01;;;;;;;13.45;9.27;;;8.20;99.90;;;;;;5055460;28;20047;-79
2020/12/15 01:35:27;;;;;;;11.43;9.43;;;8.20;99.90;;;;;;5076003;28;20089;-78
2020/12/15 01:37:52;;;;;;;15.63;10.07;;;8.30;99.90;;;;;;5056533;28;20395;-78
2020/12/15 01:40:18;;;;;;;14.18;9.25;;;8.20;99.90;;;;;;5073218;28;20099;-78
2020/12/15 01:42:44;;;;;;;14.02;9.48;;;8.20;99.90;;;;;;5055144;28;20024;-78
2020/12/15 01:45:09;;;;;;;15.10;9.95;;;8.20;99.90;;;;;;5054964;28;20055;-78
2020/12/15 01:47:35;;;;;;;13.52;9.45;;;8.20;99.90;;;;;;5054921;28;20031;-78
2020/12/15 01:50:01;;;;;;;16.73;10.13;;;8.30;99.90;;;;;;5054821;28;20043;-79
2020/12/15 01:52:30;;;;;;;15.95;10.75;;;8.20;99.90;;;;;;5073084;28;20021;-78
2020/12/15 01:54:58;;;;;;;14.30;10.55;;;8.30;99.90;;;;;;5054701;28;20016;-78
2020/12/15 01:57:25;;;;;;;15.40;11.30;;;8.30;99.90;;;;;;5072907;28;20032;-78
2020/12/15 01:59:51;;;;;;;18.77;10.70;;;8.30;99.90;;;;;;5054691;28;20024;-78
2020/12/15 02:02:19;;;;;;;17.90;10.82;;;8.30;99.90;;;;;;5054751;28;20021;-78
2020/12/15 02:04:45;;;;;;;18.40;11.48;;;8.30;99.90;;;;;;5054766;28;20488;-78
2020/12/15 02:07:11;;;;;;;17.45;10.93;;;8.30;99.90;;;;;;5075340;28;20060;-79
2020/12/15 02:09:37;;;;;;;16.63;10.55;;;8.30;99.90;;;;;;5072766;28;20075;-79
2020/12/15 02:12:03;;;;;;;15.07;11.00;;;8.30;99.90;;;;;;5086222;28;20016;-79
2020/12/15 02:14:28;;;;;;;14.85;10.95;;;8.40;99.90;;;;;;5054594;28;20468;-79
2020/12/15 02:16:54;;;;;;;17.05;11.77;;;8.40;99.90;;;;;;5072115;28;20020;-79
2020/12/15 02:19:20;;;;;;;16.75;10.88;;;8.40;99.90;;;;;;5054665;28;20942;-79
2020/12/15 02:21:56;;;;;;;16.33;10.85;;;8.40;99.90;;;;;;5057372;28;20091;-79
2020/12/15 02:24:22;;;;;;;15.25;10.45;;;8.40;99.90;;;;;;5068539;28;20047;-79
2020/12/15 02:26:48;;;;;;;15.43;11.07;;;8.40;99.90;;;;;;5053706;28;20032;-78
2020/12/15 02:29:14;;;;;;;14.07;10.15;;;8.40;99.90;;;;;;5054672;28;20012;-78
2020/12/15 02:31:40;;;;;;;14.77;10.68;;;8.40;99.90;;;;;;5054158;28;20021;-78
2020/12/15 02:34:06;;;;;;;14.20;10.75;;;8.50;99.90;;;;;;5054340;28;20017;-78
2020/12/15 02:36:31;;;;;;;15.65;10.95;;;8.50;99.90;;;;;;5054014;28;20107;-78
2020/12/15 02:39:09;;;;;;;18.90;11.60;;;8.50;99.90;;;;;;5054438;28;20487;-78
2020/12/15 02:41:34;;;;;;;17.08;10.82;;;8.50;99.90;;;;;;5067374;28;20032;-78
2020/12/15 02:44:01;;;;;;;14.63;10.10;;;8.50;99.90;;;;;;5054205;28;20028;-79
2020/12/15 02:46:27;;;;;;;15.35;10.20;;;8.50;99.90;;;;;;5053917;28;20048;-78
2020/12/15 02:48:54;;;;;;;14.30;10.60;;;8.50;99.90;;;;;;5083783;28;20441;-79
2020/12/15 02:51:20;;;;;;;14.40;10.43;;;8.50;99.90;;;;;;5056357;28;20039;-79
2020/12/15 02:53:45;;;;;;;16.70;11.13;;;8.50;99.90;;;;;;5072017;28;20472;-79
2020/12/15 02:56:23;;;;;;;12.60;9.85;;;8.50;99.90;;;;;;5054010;28;20020;-78
2020/12/15 02:58:49;;;;;;;17.48;10.88;;;8.50;99.90;;;;;;5053959;28;20036;-79
2020/12/15 03:01:15;;;;;;;13.70;9.07;;;8.50;99.90;;;;;;5072039;28;20020;-79
2020/12/15 03:03:41;;;;;;;16.70;10.25;;;8.50;99.90;;;;;;5071811;28;20021;-79
2020/12/15 03:06:07;;;;;;;17.23;10.77;;;8.60;99.90;;;;;;5071851;28;20503;-79
2020/12/15 03:08:32;;;;;;;18.27;10.70;;;8.60;99.90;;;;;;5071905;28;20030;-79
2020/12/15 03:10:59;;;;;;;16.40;10.07;;;8.60;99.90;;;;;;5054040;28;20406;-79
2020/12/15 03:13:25;;;;;;;15.45;10.35;;;8.60;99.90;;;;;;5054045;28;20056;-79
2020/12/15 03:15:50;;;;;;;13.70;9.80;;;8.60;99.90;;;;;;5071795;28;20052;-79
2020/12/15 03:18:16;;;;;;;15.75;10.82;;;8.60;99.90;;;;;;5053892;28;20052;-79
2020/12/15 03:20:46;;;;;;;13.95;9.93;;;8.60;99.90;;;;;;5053945;28;20543;-79
2020/12/15 03:23:16;;;;;;;13.60;9.30;;;8.60;99.90;;;;;;5071951;28;20020;-79
2020/12/15 03:25:42;;;;;;;;;;;8.60;99.90;;;;;;5055936;28;20028;-79
2020/12/15 03:28:07;;;;;;;17.85;10.88;;;8.60;99.90;;;;;;5053955;28;19965;-79
2020/12/15 03:30:34;;;;;;;16.52;10.27;;;8.60;99.90;;;;;;5071861;28;20020;-79
2020/12/15 03:33:00;;;;;;;16.42;10.15;;;8.60;99.90;;;;;;5053688;28;20024;-79
2020/12/15 03:35:27;;;;;;;14.00;9.85;;;8.70;99.90;;;;;;5054129;28;20407;-79
2020/12/15 03:37:56;;;;;;;15.18;10.30;;;8.70;99.90;;;;;;5053648;28;20021;-79
2020/12/15 03:40:22;;;;;;;15.93;10.48;;;8.70;99.90;;;;;;5075932;28;20021;-79
2020/12/15 03:42:48;;;;;;;19.42;10.90;;;8.70;99.90;;;;;;5075299;28;20039;-79
2020/12/15 03:45:14;;;;;;;14.10;9.73;;;8.70;99.90;;;;;;5060376;28;20021;-78
2020/12/15 03:47:40;;;;;;;15.07;10.02;;;8.80;99.90;;;;;;5057566;28;20020;-78
2020/12/15 03:50:09;;;;;;;13.02;9.07;;;8.70;99.90;;;;;;5075255;28;20136;-79
2020/12/15 03:52:37;;;;;;;13.95;9.82;;;8.80;99.90;;;;;;5075242;28;20016;-79
2020/12/15 03:55:04;;;;;;;14.55;9.85;;;8.80;99.90;;;;;;5057190;28;20120;-78
2020/12/15 03:57:30;;;;;;;14.35;9.30;;;8.80;99.90;;;;;;5057093;28;20564;-78
2020/12/15 03:59:56;;;;;;;13.38;8.73;;;8.80;99.90;;;;;;5075216;28;20095;-78
2020/12/15 04:02:21;;;;;;;16.52;9.88;;;8.80;99.90;;;;;;5057158;28;20029;-78
2020/12/15 04:04:47;;;;;;;14.43;9.52;;;8.80;99.90;;;;;;5057081;28;20021;-78
2020/12/15 04:07:12;;;;;;;13.88;9.65;;;8.80;99.90;;;;;;5074738;28;20028;-79
2020/12/15 04:09:38;;;;;;;13.55;8.70;;;8.80;99.90;;;;;;5057134;28;20048;-78
2020/12/15 04:12:03;;;;;;;14.88;8.77;;;8.80;99.90;;;;;;5056991;28;20436;-78
2020/12/15 04:14:29;;;;;;;13.75;8.90;;;8.80;99.90;;;;;;5056962;28;20025;-78
2020/12/15 04:16:54;;;;;;;12.75;9.52;;;8.80;99.90;;;;;;5068245;28;20020;-78
2020/12/15 04:19:20;;;;;;;12.40;8.32;;;8.80;99.90;;;;;;5091318;28;20063;-78
2020/12/15 04:21:45;;;;;;;15.75;8.35;;;8.80;99.90;;;;;;5082428;28;20070;-78
2020/12/15 04:24:11;;;;;;;12.68;8.70;;;8.90;99.90;;;;;;5056602;28;20017;-78
2020/12/15 04:26:38;;;;;;;13.75;9.60;;;8.80;99.90;;;;;;5056784;28;20495;-78
2020/12/15 04:29:03;;;;;;;14.32;8.02;;;8.80;99.90;;;;;;5074763;28;20095;-78
2020/12/15 04:31:29;;;;;;;11.95;9.35;;;8.80;99.90;;;;;;5056539;28;20501;-78
2020/12/15 04:33:55;;;;;;;18.05;9.40;;;8.80;99.90;;;;;;5056621;28;20032;-79
2020/12/15 04:36:21;;;;;;;15.45;8.35;;;8.90;99.90;;;;;;5074873;28;20020;-78
2020/12/15 04:38:47;;;;;;;11.65;8.52;;;8.80;99.90;;;;;;5074414;28;20027;-78
2020/12/15 04:41:12;;;;;;;11.50;8.65;;;8.80;99.90;;;;;;5056439;28;20064;-78
2020/12/15 04:43:40;;;;;;;12.75;8.82;;;8.80;99.90;;;;;;5056338;28;20016;-79
2020/12/15 04:46:07;;;;;;;14.30;8.70;;;8.80;99.90;;;;;;5056451;28;20028;-78
2020/12/15 04:48:39;;;;;;;13.63;8.55;;;8.80;99.90;;;;;;5058967;28;20123;-78
2020/12/15 04:51:08;;;;;;;16.45;8.40;;;8.80;99.90;;;;;;5054970;28;20475;-78
2020/12/15 04:53:36;;;;;;;13.63;8.85;;;8.80;99.90;;;;;;5055436;28;20039;-78
2020/12/15 04:56:13;;;;;;;13.07;8.82;;;8.70;99.90;;;;;;5073504;28;20024;-79
2020/12/15 04:58:47;;;;;;;12.20;8.52;;;8.70;99.90;;;;;;5055203;28;20392;-78
2020/12/15 05:01:14;;;;;;;10.45;8.05;;;8.70;99.90;;;;;;5055343;28;20024;-78
2020/12/15 05:03:42;;;;;;;14.00;9.27;;;8.70;99.90;;;;;;5072973;28;20545;-79
2020/12/15 05:06:15;;;;;;;11.23;8.70;;;8.80;99.90;;;;;;5072992;28;20477;-78
2020/12/15 05:08:47;;;;;;;12.73;8.45;;;8.70;99.90;;;;;;5054973;28;20052;-78
2020/12/15 05:11:12;;;;;;;13.77;9.38;;;8.70;99.90;;;;;;5073081;28;20507;-78
2020/12/15 05:13:38;;;;;;;10.18;7.70;;;8.70;99.90;;;;;;5072930;28;20020;-79
2020/12/15 05:16:04;;;;;;;11.40;8.10;;;8.70;99.90;;;;;;5073037;28;20388;-79
2020/12/15 05:18:29;;;;;;;10.95;8.35;;;8.70;99.90;;;;;;5073263;28;20036;-78
2020/12/15 05:20:55;;;;;;;11.23;8.27;;;8.70;99.90;;;;;;5073701;28;20048;-78
2020/12/15 05:23:21;;;;;;;13.07;8.07;;;8.70;99.90;;;;;;5073739;28;20099;-78
2020/12/15 05:25:47;;;;;;;12.48;8.70;;;8.70;99.90;;;;;;5058033;28;20017;-79
2020/12/15 05:28:14;;;;;;;11.38;8.50;;;8.70;99.90;;;;;;5073645;28;20082;-78
2020/12/15 05:30:41;;;;;;;14.45;8.15;;;8.70;99.90;;;;;;5055497;28;20020;-78
2020/12/15 05:33:17;;;;;;;10.38;7.85;;;8.70;99.90;;;;;;5055459;28;20468;-79
2020/12/15 05:35:43;;;;;;;15.65;9.20;;;8.70;99.90;;;;;;5057578;28;20407;-78
2020/12/15 05:38:09;;;;;;;13.00;8.43;;;8.70;99.90;;;;;;5063035;28;20021;-78
2020/12/15 05:40:35;;;;;;;12.02;8.32;;;8.70;99.90;;;;;;5073373;28;20020;-78
2020/12/15 05:43:03;;;;;;;11.23;8.35;;;8.60;99.90;;;;;;5073286;28;20495;-78
2020/12/15 05:45:31;;;;;;;12.00;8.57;;;8.60;99.90;;;;;;5055116;28;20492;-78
2020/12/15 05:48:05;;;;;;;12.18;7.85;;;8.60;99.90;;;;;;5072804;28;20059;-78
2020/12/15 05:50:31;;;;;;;13.02;9.20;;;8.60;99.90;;;;;;5057933;28;20467;-78
2020/12/15 05:53:02;;;;;;;14.90;9.07;;;8.60;99.90;;;;;;5054937;28;20053;-78
2020/12/15 05:55:29;;;;;;;13.65;8.60;;;8.60;99.90;;;;;;5055137;28;20050;-79
2020/12/15 05:57:55;;;;;;;13.75;7.88;;;8.50;99.90;;;;;;5072708;28;20118;-78
2020/12/15 06:00:24;;;;;;;12.63;8.70;;;8.50;99.90;;;;;;5054802;28;20460;-78
2020/12/15 06:03:03;;;;;;;14.10;9.60;;;8.50;99.90;;;;;;5054242;28;20054;-78
2020/12/15 06:05:31;;;;;;;12.50;8.77;;;8.50;99.90;;;;;;5054725;28;20024;-79
2020/12/15 06:07:58;;;;;;;14.00;9.23;;;8.50;99.90;;;;;;5072568;28;20016;-79
2020/12/15 06:10:26;;;;;;;11.98;8.52;;;8.50;99.90;;;;;;5072381;28;20091;-80
2020/12/15 06:12:53;;;;;;;13.93;9.93;;;8.50;99.90;;;;;;5054507;28;20039;-79
2020/12/15 06:15:18;;;;;;;14.05;9.07;;;8.50;99.90;;;;;;5054831;28;20071;-79
2020/12/15 06:18:02;;;;;;;13.30;8.88;;;8.50;99.90;;;;;;5068948;28;20425;-79
2020/12/15 06:20:36;;;;;;;12.57;9.38;;;8.50;99.90;;;;;;5071977;28;20115;-79
2020/12/15 06:23:14;;;;;;;13.73;9.07;;;8.50;99.90;;;;;;5064460;28;20054;-79
2020/12/15 06:25:39;;;;;;;15.70;10.27;;;8.50;99.90;;;;;;5057694;28;20044;-78
2020/12/15 06:28:05;;;;;;;18.20;10.35;;;8.50;99.90;;;;;;5072370;28;20476;-78
2020/12/15 06:30:32;;;;;;;18.88;10.07;;;8.50;99.90;;;;;;5054373;28;20436;-78
2020/12/15 06:32:59;;;;;;;16.75;10.10;;;8.50;99.90;;;;;;5084635;28;20024;-78
2020/12/15 06:35:26;;;;;;;16.65;10.75;;;8.50;99.90;;;;;;5066456;28;20025;-78
2020/12/15 06:37:52;;;;;;;15.10;10.38;;;8.50;99.90;;;;;;5072502;28;20432;-78
2020/12/15 06:40:18;;;;;;;13.70;10.23;;;8.50;99.90;;;;;;5055092;28;20016;-78
2020/12/15 06:42:51;;;;;;;14.20;9.70;;;8.50;99.90;;;;;;5072797;28;20488;-78
2020/12/15 06:45:21;;;;;;;15.00;10.23;;;8.50;99.90;;;;;;5054972;28;20021;-78
2020/12/15 06:47:58;;;;;;;14.93;10.20;;;8.50;99.90;;;;;;5054677;28;20107;-78
2020/12/15 06:50:24;;;;;;;16.52;10.18;;;8.50;99.90;;;;;;5072900;28;20029;-78
2020/12/15 06:52:49;;;;;;;15.80;11.13;;;8.50;99.90;;;;;;5073036;28;20044;-78
2020/12/15 06:55:26;;;;;;;15.65;10.95;;;8.50;99.90;;;;;;5072642;28;20020;-78
2020/12/15 06:57:58;;;;;;;14.82;10.00;;;8.50;99.90;;;;;;5072900;28;20024;-79
2020/12/15 07:00:40;;;;;;;16.52;10.63;;;8.50;99.90;;;;;;5054511;28;20402;-78
2020/12/15 07:03:09;;;;;;;15.35;10.40;;;8.50;99.90;;;;;;5072806;28;20475;-78
2020/12/15 07:05:36;;;;;;;18.02;10.90;;;8.50;99.90;;;;;;5054561;28;20123;-78
2020/12/15 07:08:09;;;;;;;13.52;10.07;;;8.50;99.90;;;;;;5075095;28;20024;-78
2020/12/15 07:10:39;;;;;;;14.98;10.80;;;8.50;99.90;;;;;;5083386;28;20391;-78
2020/12/15 07:13:05;;;;;;;;;;;8.50;99.90;;;;;;5077014;28;20398;-79
2020/12/15 07:15:33;;;;;;;14.73;10.35;;;8.50;99.90;;;;;;5078929;28;19905;-78
2020/12/15 07:18:00;;;;;;;18.35;11.63;;;8.50;99.90;;;;;;5078828;28;20027;-78
2020/12/15 07:20:26;;;;;;;18.17;10.98;;;8.40;99.90;;;;;;5096820;28;20028;-78
2020/12/15 07:22:52;;;;;;;19.00;11.07;;;8.50;99.90;;;;;;5078690;28;20111;-78
2020/12/15 07:25:18;;;;;;;15.93;11.10;;;8.50;99.90;;;;;;5078496;28;20024;-78
2020/12/15 07:27:45;;;;;;;20.00;12.35;;;8.50;99.90;;;;;;5078209;28;20467;-77
2020/12/15 07:30:16;;;;;;;19.70;11.48;;;8.50;99.90;;;;;;5096730;28;20081;-78
2020/12/15 07:32:43;;;;;;;21.02;11.93;;;8.50;99.90;;;;;;5090388;28;20472;-79
2020/12/15 07:35:17;;;;;;;18.75;12.20;;;8.50;99.90;;;;;;5068910;28;20082;-78
2020/12/15 07:37:43;;;;;;;20.02;12.50;;;8.50;99.90;;;;;;5085341;28;20027;-78
2020/12/15 07:40:11;;;;;;;17.80;13.07;;;8.50;99.90;;;;;;5077437;28;20036;-78
2020/12/15 07:42:38;;;;;;;17.73;12.10;;;8.50;99.90;;;;;;5077787;28;20020;-78
2020/12/15 07:45:09;;;;;;;15.40;10.38;;;8.50;99.90;;;;;;5078281;28;20119;-79
2020/12/15 07:47:43;;;;;;;14.18;10.95;;;8.50;99.90;;;;;;5078329;28;20026;-79
2020/12/15 07:50:10;;;;;;;15.75;11.30;;;8.50;99.90;;;;;;5077071;28;20035;-78
2020/12/15 07:52:38;;;;;;;16.00;11.55;;;8.50;99.90;;;;;;5076075;28;20020;-79
2020/12/15 07:55:08;;;;;;;16.98;10.93;;;8.50;99.90;;;;;;5063467;28;20082;-79
2020/12/15 07:57:34;;;;;;;;;;;8.50;99.90;;;;;;5087280;28;20047;-78
2020/12/15 08:00:07;;;;;;;19.52;11.75;;;8.50;99.90;;;;;;5085444;28;19951;-78
2020/12/15 08:02:33;;;;;;;16.73;12.13;;;8.50;99.90;;;;;;5066445;28;20032;-78
2020/12/15 08:05:04;;;;;;;20.05;12.40;;;8.50;99.90;;;;;;5067516;28;20024;-79
2020/12/15 08:07:30;;;;;;;16.77;12.32;;;8.50;99.90;;;;;;5068425;28;20016;-78
2020/12/15 08:09:59;;;;;;;18.40;12.93;;;8.50;99.90;;;;;;5065466;28;20029;-79
2020/12/15 08:12:27;;;;;;;19.50;12.70;;;8.50;99.90;;;;;;5087735;28;20475;-78
2020/12/15 08:14:53;;;;;;;20.50;13.35;;;8.50;99.90;;;;;;5115907;28;20034;-78
2020/12/15 08:17:20;;;;;;;20.23;12.32;;;8.60;99.90;;;;;;5099675;28;20070;-78
2020/12/15 08:19:46;;;;;;;21.27;12.90;;;8.60;99.90;;;;;;5077451;28;20027;-78
2020/12/15 08:22:18;;;;;;;19.05;12.68;;;8.60;99.90;;;;;;5095701;28;20024;-78
2020/12/15 08:24:49;;;;;;;17.67;12.50;;;8.70;99.90;;;;;;5091110;28;20387;-78
2020/12/15 08:27:15;;;;;;;19.65;12.82;;;8.70;99.90;;;;;;5071382;28;20023;-78
2020/12/15 08:29:40;;;;;;;19.33;12.68;;;8.70;99.90;;;;;;5057287;28;20025;-78
2020/12/15 08:32:06;;;;;;;17.30;12.60;;;8.70;99.90;;;;;;5075229;28;20017;-78
2020/12/15 08:34:31;;;;;;;16.48;12.00;;;8.70;99.90;;;;;;5057886;28;20369;-78
2020/12/15 08:36:57;;;;;;;19.60;13.38;;;8.70;99.90;;;;;;5077353;28;20646;-78
2020/12/15 08:39:26;;;;;;;17.17;13.55;;;8.80;99.90;;;;;;5074382;28;20077;-77
2020/12/15 08:41:55;;;;;;;20.13;13.13;;;8.80;99.90;;;;;;5096841;28;20028;-77
2020/12/15 08:44:22;;;;;;;15.32;12.68;;;8.80;99.90;;;;;;5083121;28;20560;-78
2020/12/15 08:46:55;;;;;;;17.02;13.43;;;8.80;99.90;;;;;;5089724;28;20024;-78
2020/12/15 08:49:22;;;;;;;15.73;12.13;;;8.80;99.90;;;;;;5082563;28;20044;-77
2020/12/15 08:51:50;;;;;;;18.73;14.18;;;8.90;99.90;;;;;;5073959;28;20016;-77
2020/12/15 08:54:17;;;;;;;18.55;14.13;;;8.90;99.90;;;;;;5078736;28;20066;-77
2020/12/15 08:56:43;;;;;;;18.70;12.93;;;8.90;99.90;;;;;;5067232;28;20024;-78
2020/12/15 08:59:11;;;;;;;16.58;13.48;;;8.90;99.90;;;;;;5090110;28;20024;-77
2020/12/15 09:01:37;;;;;;;19.05;14.32;;;8.90;99.90;;;;;;5094697;28;20020;-77
2020/12/15 09:04:02;;;;;;;17.50;13.88;;;8.90;99.90;;;;;;5076728;28;20032;-77
2020/12/15 09:06:32;;;;;;;21.65;14.70;;;9.00;99.90;;;;;;5076600;28;20066;-78
2020/12/15 09:08:57;;;;;;;;;;;9.00;99.90;;;;;;5095097;28;20040;-78
2020/12/15 09:11:23;;;;;;;18.73;14.43;;;9.00;99.90;;;;;;5076485;28;20052;-78
2020/12/15 09:13:59;;;;;;;18.13;13.60;;;8.90;99.90;;;;;;5094512;28;20024;-77
2020/12/15 09:16:32;;;;;;;15.35;12.23;;;9.00;99.90;;;;;;5067492;28;20017;-78
2020/12/15 09:19:10;;;;;;;18.30;14.00;;;9.00;99.90;;;;;;5056574;28;20505;-77
2020/12/15 09:21:35;;;;;;;18.55;13.20;;;9.00;99.90;;;;;;5056413;28;20054;-77
2020/12/15 09:24:01;;;;;;;17.30;13.68;;;9.00;99.90;;;;;;5056321;28;20024;-78
2020/12/15 09:26:26;;;;;;;19.55;14.75;;;9.00;99.90;;;;;;5055940;28;20028;-77
2020/12/15 09:28:52;;;;;;;18.75;14.38;;;9.10;99.90;;;;;;5056366;28;20019;-80
2020/12/15 09:31:19;;;;;;;18.85;14.13;;;9.10;99.90;;;;;;5056197;28;20027;-81
2020/12/15 09:33:45;;;;;;;18.55;14.20;;;9.10;99.90;;;;;;5062508;28;20017;-81
2020/12/15 09:36:15;;;;;;;17.90;14.18;;;9.10;99.90;;;;;;5065626;28;20032;-81
2020/12/15 09:38:40;;;;;;;20.17;14.65;;;9.10;99.90;;;;;;5065234;28;20024;-76
2020/12/15 09:41:07;;;;;;;20.20;13.55;;;9.10;99.90;;;;;;5088882;28;20061;-76
2020/12/15 09:43:32;;;;;;;18.52;13.35;;;9.10;99.90;;;;;;5094187;28;20031;-77
2020/12/15 09:45:58;;;;;;;17.70;13.65;;;9.20;99.90;;;;;;5075392;28;20028;-76
2020/12/15 09:48:24;;;;;;;19.20;13.90;;;9.20;99.90;;;;;;5075682;28;20178;-76
2020/12/15 09:50:52;;;;;;;17.92;13.23;;;9.20;99.90;;;;;;5075817;28;20012;-76
2020/12/15 09:53:17;;;;;;;19.08;13.85;;;9.20;99.90;;;;;;5089529;28;20017;-76
2020/12/15 09:55:43;;;;;;;16.30;12.52;;;9.20;99.90;;;;;;5083415;28;20502;-76
2020/12/15 09:58:08;;;;;;;16.25;12.27;;;9.20;99.90;;;;;;5082272;28;20031;-76
2020/12/15 10:00:34;;;;;;;17.15;12.40;;;9.20;99.90;;;;;;5084088;28;20030;-76
2020/12/15 10:02:59;;;;;;;16.85;12.82;;;9.20;99.90;;;;;;5061661;28;20491;-76
2020/12/15 10:05:26;;;;;;;17.88;12.57;;;9.20;99.90;;;;;;5080836;28;20078;-76
2020/12/15 10:07:51;;;;;;;17.85;12.82;;;9.20;99.90;;;;;;5083134;28;20028;-76
2020/12/15 10:10:17;;;;;;;17.73;12.25;;;9.20;99.90;;;;;;5061180;28;20027;-76
2020/12/15 10:12:43;;;;;;;15.98;12.52;;;9.30;99.90;;;;;;5083148;28;20093;-76
2020/12/15 10:15:10;;;;;;;15.35;12.23;;;9.30;99.90;;;;;;5082867;28;20454;-76
2020/12/15 10:17:37;;;;;;;22.38;13.38;;;9.30;99.90;;;;;;5075239;28;20032;-76
2020/12/15 10:20:06;;;;;;;15.38;11.60;;;9.30;99.90;;;;;;5075484;28;20032;-76
2020/12/15 10:22:31;;;;;;;17.60;12.75;;;9.30;99.90;;;;;;5093113;28;20032;-76
2020/12/15 10:24:57;;;;;;;15.60;12.27;;;9.30;99.90;;;;;;5092938;28;20032;-76
2020/12/15 10:27:23;;;;;;;16.13;12.73;;;9.30;99.90;;;;;;5092994;28;20120;-76
2020/12/15 10:29:48;;;;;;;15.65;12.02;;;9.30;99.90;;;;;;5073798;28;20043;-76
2020/12/15 10:32:14;;;;;;;17.23;13.20;;;9.40;99.90;;;;;;5091733;28;20391;-76
2020/12/15 10:34:39;;;;;;;15.95;12.40;;;9.40;99.90;;;;;;5073811;28;20024;-76
2020/12/15 10:37:05;;;;;;;14.27;11.38;;;9.40;99.90;;;;;;5071075;28;20371;-76
2020/12/15 10:39:30;;;;;;;16.30;12.55;;;9.40;99.90;;;;;;5089568;28;20035;-76
2020/12/15 10:41:56;;;;;;;15.43;10.90;;;9.40;99.90;;;;;;5063565;28;20016;-76
2020/12/15 10:44:21;;;;;;;14.10;10.80;;;9.40;99.90;;;;;;5083737;28;20551;-76
2020/12/15 10:46:48;;;;;;;17.42;11.40;;;9.40;99.90;;;;;;5092693;28;20103;-76
2020/12/15 10:49:17;;;;;;;15.52;11.77;;;9.40;99.90;;;;;;5074572;28;20040;-76
2020/12/15 10:51:47;;;;;;;13.40;10.55;;;9.40;99.90;;;;;;5074607;28;20070;-76
2020/12/15 10:54:13;;;;;;;13.48;11.10;;;9.40;99.90;;;;;;5074786;28;20028;-76
2020/12/15 10:56:38;;;;;;;14.98;10.65;;;9.40;99.90;;;;;;5054165;28;20036;-76
2020/12/15 10:59:04;;;;;;;14.40;11.10;;;9.40;99.90;;;;;;5074787;28;20437;-77
2020/12/15 11:01:29;;;;;;;17.08;11.32;;;9.40;99.90;;;;;;5062331;28;20031;-76
2020/12/15 11:03:56;;;;;;;19.17;13.27;;;9.40;99.90;;;;;;5086211;28;20526;-77
2020/12/15 11:06:24;;;;;;;18.08;12.32;;;9.40;99.90;;;;;;5090151;28;20020;-77
2020/12/15 11:08:49;;;;;;;17.23;13.00;;;9.40;99.90;;;;;;5070374;28;20383;-77
2020/12/15 11:11:15;;;;;;;19.17;13.77;;;9.40;99.90;;;;;;5092479;28;20020;-77
2020/12/15 11:13:41;;;;;;;16.63;13.23;;;9.40;99.90;;;;;;5078156;28;20472;-77
2020/12/15 11:16:07;;;;;;;20.80;14.35;;;9.50;99.90;;;;;;5060058;28;20028;-77
2020/12/15 11:18:32;;;;;;;21.85;15.43;;;9.40;99.90;;;;;;5065749;28;20125;-76
2020/12/15 11:20:58;;;;;;;17.00;14.20;;;9.40;99.90;;;;;;5092724;28;20134;-76
2020/12/15 11:23:23;;;;;;;19.98;14.63;;;9.50;99.90;;;;;;5074441;28;20066;-76
2020/12/15 11:25:49;;;;;;;16.52;13.30;;;9.50;99.90;;;;;;5092500;28;20024;-76
2020/12/15 11:28:18;;;;;;;20.13;13.95;;;9.50;99.90;;;;;;5091138;28;20074;-76
2020/12/15 11:30:44;;;;;;;19.05;13.80;;;9.50;99.90;;;;;;5092429;28;20051;-76
2020/12/15 11:33:10;;;;;;;19.23;15.10;;;9.50;99.90;;;;;;5074409;28;20471;-76
2020/12/15 11:35:35;;;;;;;21.25;16.13;;;9.50;99.90;;;;;;5092836;28;20487;-76
2020/12/15 11:38:02;;;;;;;20.05;15.55;;;9.50;99.90;;;;;;5092546;28;20028;-77
2020/12/15 11:40:27;;;;;;;23.45;16.10;;;9.50;99.90;;;;;;5074273;28;20027;-77
2020/12/15 11:42:56;;;;;;;20.48;15.70;;;9.50;99.90;;;;;;5074396;28;20394;-77
2020/12/15 11:45:22;;;;;;;21.38;15.93;;;9.50;99.90;;;;;;5092435;28;20031;-76
2020/12/15 11:47:48;;;;;;;19.83;16.55;;;9.50;99.90;;;;;;5070760;28;20024;-77
2020/12/15 11:50:14;;;;;;;20.60;15.15;;;9.50;99.90;;;;;;5063420;28;20081;-77
2020/12/15 11:52:39;;;;;;;20.52;15.05;;;9.50;99.90;;;;;;5078326;28;20096;-77
2020/12/15 11:55:05;;;;;;;20.00;15.65;;;9.50;99.90;;;;;;5058347;28;20035;-76
2020/12/15 11:57:30;;;;;;;23.65;16.58;;;9.50;99.90;;;;;;5080610;28;20438;-76
2020/12/15 11:59:56;;;;;;;19.95;16.50;;;9.50;99.90;;;;;;5050751;28;20787;-76
2020/12/15 12:02:21;;;;;;;21.90;16.05;;;9.50;99.90;;;;;;5051682;28;20036;-76
2020/12/15 12:04:47;;;;;;;21.15;15.88;;;9.50;99.90;;;;;;5063898;28;20121;-76
2020/12/15 12:07:13;;;;;;;18.55;14.13;;;9.50;99.90;;;;;;5074339;28;20036;-76
2020/12/15 12:09:38;;;;;;;21.33;16.77;;;9.50;99.90;;;;;;5091748;28;20027;-76
2020/12/15 12:12:05;;;;;;;21.63;15.65;;;9.50;99.90;;;;;;5067777;28;20024;-77
2020/12/15 12:14:31;;;;;;;20.23;15.73;;;9.50;99.90;;;;;;5075354;28;20032;-76
2020/12/15 12:16:56;;;;;;;17.77;13.18;;;9.50;99.90;;;;;;5074138;28;20099;-76
2020/12/15 12:19:22;;;;;;;18.02;14.48;;;9.60;99.90;;;;;;5055594;28;20024;-76
2020/12/15 12:21:47;;;;;;;19.77;14.52;;;9.60;99.90;;;;;;5073760;28;20499;-76
2020/12/15 12:24:13;;;;;;;21.90;13.93;;;9.60;99.90;;;;;;5075403;28;20032;-76
2020/12/15 12:26:38;;;;;;;19.67;13.77;;;9.60;99.90;;;;;;5074279;28;20031;-76
2020/12/15 12:29:04;;;;;;;16.10;13.23;;;9.60;99.90;;;;;;5073657;28;20496;-76
2020/12/15 12:31:30;;;;;;;17.10;12.80;;;9.60;99.90;;;;;;5073667;28;20036;-76
2020/12/15 12:33:55;;;;;;;17.52;13.52;;;9.60;99.90;;;;;;5079295;28;20166;-76
2020/12/15 12:36:21;;;;;;;21.30;15.50;;;9.60;99.90;;;;;;5065508;28;20048;-76
2020/12/15 12:38:46;;;;;;;21.42;15.65;;;9.60;99.90;;;;;;5065042;28;20119;-76